Time;durP1;ratioP1;P1;durP2;ratioP2;P2;SDS_P1;SDS_P2;PMS_P1;PMS_P2;Temp;Humidity;BMP_temperature;BMP_pressure;BME280_temperature;BME280_humidity;BME280_pressure;Samples;Min_cycle;Max_cycle;Signal;HPM_P1;HPM_P2
2023/01/03 00:01:28;;;;;;;3.53;3.33;;;8.60;99.90;;;9.39;99.20;99013.56;5200840;28;20672;-63
2023/01/03 00:04:03;;;;;;;3.53;3.33;;;8.60;99.90;;;9.39;100.00;99017.78;5198417;28;20684;-63
2023/01/03 00:06:41;;;;;;;3.83;3.60;;;8.60;99.90;;;9.36;100.00;99008.22;5199693;28;20659;-64
2023/01/03 00:09:16;;;;;;;3.80;3.50;;;8.60;99.90;;;9.34;100.00;99007.22;5199168;28;20320;-64
2023/01/03 00:14:43;;;;;;;3.47;3.17;;;8.50;99.90;;;9.25;99.91;99020.13;5197912;28;20237;-63
2023/01/03 00:17:18;;;;;;;3.00;2.80;;;8.50;99.90;;;9.22;100.00;99012.22;5199116;28;20213;-64
2023/01/03 00:19:51;;;;;;;3.72;3.42;;;8.40;99.90;;;9.20;100.00;99010.31;5200267;28;20253;-63
2023/01/03 00:22:26;;;;;;;3.58;3.38;;;8.40;99.90;;;9.18;100.00;99009.28;5196629;28;20685;-64
2023/01/03 00:24:59;;;;;;;3.28;3.00;;;8.40;99.90;;;9.10;99.32;99024.00;5200837;28;20292;-63
2023/01/03 00:27:32;;;;;;;3.30;3.00;;;8.30;99.90;;;9.11;100.00;99027.44;5199853;28;20217;-65
2023/01/03 00:30:07;;;;;;;3.58;3.10;;;8.30;99.90;;;9.10;99.92;99025.63;5202143;28;20268;-64
2023/01/03 00:32:40;;;;;;;3.17;2.97;;;8.30;99.90;;;9.05;100.00;99019.28;5200433;28;20649;-64
2023/01/03 00:35:13;;;;;;;3.28;3.00;;;8.30;99.90;;;9.05;100.00;99035.47;5201850;28;20379;-65
2023/01/03 00:37:47;;;;;;;3.13;2.92;;;8.30;99.90;;;9.05;100.00;99032.03;5200335;28;20701;-64
2023/01/03 00:40:21;;;;;;;3.45;3.20;;;8.30;99.90;;;9.05;100.00;99042.22;5201512;28;20279;-64
2023/01/03 00:45:44;;;;;;;3.15;2.95;;;8.20;99.90;;;8.88;100.00;99023.00;5196462;28;20621;-64
2023/01/03 00:48:18;;;;;;;2.70;2.60;;;8.10;99.90;;;8.90;100.00;99030.00;5198122;28;20628;-64
2023/01/03 00:50:51;;;;;;;2.72;2.63;;;8.10;99.90;;;8.90;100.00;99032.56;5199756;28;20292;-63
2023/01/03 00:53:26;;;;;;;3.08;2.88;;;8.20;99.90;;;8.91;100.00;99034.31;5197676;28;21000;-64
2023/01/03 00:56:03;;;;;;;2.78;2.58;;;8.20;99.90;;;8.89;100.00;99047.72;5196742;28;20692;-64
2023/01/03 00:58:38;;;;;;;2.88;2.70;;;8.10;99.90;;;8.89;100.00;99042.59;5199028;28;20320;-64
2023/01/03 01:01:14;;;;;;;3.30;3.10;;;8.10;99.90;;;8.88;100.00;99039.19;5197694;28;20650;-64
2023/01/03 01:03:51;;;;;;;4.20;3.22;;;8.10;99.90;;;8.85;100.00;99035.50;5199195;28;20223;-64
2023/01/03 01:06:27;;;;;;;2.83;2.63;;;8.10;99.90;;;8.85;100.00;99038.03;5195854;28;20684;-63
2023/01/03 01:09:05;;;;;;;2.67;2.47;;;8.00;99.90;;;8.76;100.00;99028.88;5197233;28;20256;-64
2023/01/03 01:11:39;;;;;;;3.72;2.70;;;7.90;99.90;;;8.70;100.00;99047.81;5199645;28;20252;-64
2023/01/03 01:14:22;;;;;;;2.90;2.70;;;7.90;99.90;;;8.69;100.00;99056.25;5197700;28;20217;-63
2023/01/03 01:16:58;;;;;;;2.90;2.70;;;7.90;99.90;;;8.71;100.00;99049.63;5194906;28;20212;-65
2023/01/03 01:19:35;;;;;;;3.13;2.70;;;7.90;99.90;;;8.71;100.00;99041.97;5197203;28;20221;-64
2023/01/03 01:22:09;;;;;;;2.95;2.75;;;7.90;99.90;;;8.67;100.00;99052.66;5196563;28;20296;-64
2023/01/03 01:24:44;;;;;;;2.75;2.55;;;7.90;99.90;;;8.70;100.00;99048.75;5198352;28;20197;-64
2023/01/03 01:27:17;;;;;;;2.50;2.40;;;7.90;99.90;;;8.66;100.00;99035.59;5197107;28;20197;-64
2023/01/03 01:29:50;;;;;;;2.80;2.70;;;7.90;99.90;;;8.64;100.00;99042.22;5197378;28;20257;-63
2023/01/03 01:32:23;;;;;;;2.83;2.63;;;7.90;99.90;;;8.66;100.00;99041.59;5195916;28;20202;-64
2023/01/03 01:34:57;;;;;;;2.65;2.55;;;7.90;99.90;;;8.65;100.00;99041.47;5197733;28;20320;-63
2023/01/03 01:37:30;;;;;;;2.72;2.53;;;7.90;99.90;;;8.64;100.00;99042.22;5198700;28;20645;-63
2023/01/03 01:40:07;;;;;;;2.72;2.60;;;7.90;99.90;;;8.64;100.00;99055.88;5199994;28;20245;-63
2023/01/03 01:45:31;;;;;;;3.20;3.00;;;7.90;99.90;;;8.66;100.00;99050.91;5199243;28;20381;-63
2023/01/03 01:48:11;;;;;;;2.53;2.42;;;7.90;99.90;;;8.63;100.00;99050.66;5202571;28;20206;-64
2023/01/03 01:50:49;;;;;;;2.78;2.58;;;7.80;99.90;;;8.62;100.00;99043.78;5202082;28;20200;-64
2023/01/03 01:53:25;;;;;;;2.55;2.45;;;7.80;99.90;;;8.58;100.00;99045.16;5202016;28;20659;-63
2023/01/03 01:56:05;;;;;;;2.85;2.53;;;7.80;99.90;;;8.53;100.00;99049.88;5201801;28;20229;-64
2023/01/03 01:58:42;;;;;;;2.85;2.65;;;7.80;99.90;;;8.49;100.00;99063.09;5198868;28;20308;-64
2023/01/03 02:01:20;;;;;;;2.58;2.47;;;7.70;99.90;;;8.43;100.00;99057.50;5202022;28;20629;-64
2023/01/03 02:04:00;;;;;;;2.90;2.70;;;7.60;99.90;;;8.40;100.00;99056.34;5202494;28;20221;-64
2023/01/03 02:06:34;;;;;;;2.28;2.17;;;7.60;99.90;;;8.34;100.00;99049.94;5201535;28;20218;-64
2023/01/03 02:09:07;;;;;;;2.85;2.65;;;7.50;99.90;;;8.26;100.00;99062.78;5204591;28;20222;-64
2023/01/03 02:15:01;;;;;;;2.87;2.67;;;7.40;99.90;;;8.18;100.00;99058.69;5197618;28;20609;-64
2023/01/03 02:17:45;;;;;;;2.72;2.60;;;7.30;99.90;;;8.11;100.00;99063.25;5201093;28;20665;-64
2023/01/03 02:20:30;;;;;;;2.38;2.17;;;7.30;99.90;;;8.00;100.00;99063.09;5201993;28;20666;-64
2023/01/03 02:23:31;;;;;;;3.08;2.88;;;7.20;99.90;;;7.96;100.00;99059.41;5198951;28;20194;-63
2023/01/03 02:26:50;;;;;;;3.05;2.85;;;7.20;99.90;;;7.91;100.00;99053.00;5202672;28;20597;-63
2023/01/03 02:30:06;;;;;;;3.17;2.87;;;7.10;99.90;;;7.86;100.00;99059.34;5198181;28;20222;-63
2023/01/03 02:32:45;;;;;;;3.17;2.97;;;7.10;99.90;;;7.79;100.00;99054.50;5202991;28;20723;-64
2023/01/03 02:35:24;;;;;;;2.90;2.70;;;7.00;99.90;;;7.73;100.00;99046.34;5198626;28;20748;-63
2023/01/03 02:38:08;;;;;;;2.40;2.30;;;6.90;99.90;;;7.71;100.00;99047.84;5201432;28;20244;-64
2023/01/03 02:40:47;;;;;;;2.50;2.40;;;6.90;99.90;;;7.72;100.00;99052.16;5203187;28;20257;-63
2023/01/03 02:43:28;;;;;;;2.90;2.70;;;7.00;99.90;;;7.74;100.00;99051.53;5202066;28;20661;-64
2023/01/03 02:46:07;;;;;;;2.57;2.47;;;7.00;99.90;;;7.77;100.00;99062.00;5198248;28;20246;-63
2023/01/03 02:48:48;;;;;;;3.00;2.80;;;7.00;99.90;;;7.80;100.00;99066.47;5200568;28;20225;-63
2023/01/03 02:51:27;;;;;;;2.57;2.47;;;7.00;99.90;;;7.80;100.00;99074.09;5199493;28;20310;-63
2023/01/03 02:54:02;;;;;;;2.87;2.67;;;7.00;99.90;;;7.81;100.00;99070.78;5201254;28;20198;-64
2023/01/03 02:56:40;;;;;;;2.67;2.57;;;7.00;99.90;;;7.78;100.00;99065.41;5197463;28;20210;-64
2023/01/03 02:59:17;;;;;;;2.90;2.80;;;7.00;99.90;;;7.71;100.00;99066.56;5199431;28;20229;-63
2023/01/03 03:01:54;;;;;;;3.17;2.97;;;6.90;99.90;;;7.71;100.00;99068.22;5202082;28;20259;-64
2023/01/03 03:04:28;;;;;;;2.60;2.40;;;6.90;99.90;;;7.71;100.00;99066.56;5199717;28;20202;-64
2023/01/03 03:07:08;;;;;;;2.83;2.63;;;6.90;99.90;;;7.72;100.00;99075.06;5198272;28;20198;-64
2023/01/03 03:15:30;;;;;;;3.13;2.90;;;6.90;99.90;;;7.67;100.00;99073.03;5201698;28;20225;-64
2023/01/03 03:18:10;;;;;;;2.83;2.70;;;6.90;99.90;;;7.65;100.00;99079.63;5200548;28;20209;-64
2023/01/03 03:26:33;;;;;;;3.10;2.90;;;6.70;99.90;;;7.46;100.00;99076.22;5200690;28;20276;-64
2023/01/03 03:29:10;;;;;;;3.33;3.13;;;6.70;99.90;;;7.45;100.00;99076.97;5197935;28;20771;-64
2023/01/03 03:31:48;;;;;;;3.10;2.90;;;6.70;99.90;;;7.42;100.00;99074.16;5199058;28;20201;-64
2023/01/03 03:34:27;;;;;;;2.80;2.70;;;6.60;99.90;;;7.40;100.00;99075.66;5200635;28;20243;-63
2023/01/03 03:37:05;;;;;;;3.23;3.03;;;6.60;99.90;;;7.37;100.00;99076.28;5199555;28;20210;-64
2023/01/03 03:45:32;;;;;;;3.50;3.20;;;6.60;99.90;;;7.39;100.00;99059.53;5196882;28;20325;-64
2023/01/03 03:48:12;;;;;;;3.37;3.17;;;6.60;99.90;;;7.36;100.00;99053.28;5196779;28;20264;-63
2023/01/03 03:50:51;;;;;;;3.27;3.00;;;6.50;99.90;;;7.31;100.00;99052.84;5197747;28;20206;-63
2023/01/03 03:53:30;;;;;;;3.07;2.87;;;6.50;99.90;;;7.27;100.00;99052.44;5198792;28;20293;-63
2023/01/03 03:56:09;;;;;;;3.10;2.90;;;6.50;99.90;;;7.27;100.00;99057.53;5199440;28;20260;-64
2023/01/03 03:58:46;;;;;;;3.40;3.10;;;6.50;99.90;;;7.27;100.00;99058.44;5198701;28;20260;-63
2023/01/03 04:01:22;;;;;;;3.50;3.20;;;6.50;99.90;;;7.28;100.00;99062.75;5197853;28;20300;-64
2023/01/03 04:04:02;;;;;;;3.80;3.50;;;6.50;99.90;;;7.31;100.00;99072.31;5201331;28;20348;-64
2023/01/03 04:06:40;;;;;;;3.20;3.00;;;6.50;99.90;;;7.29;100.00;99079.78;5195388;28;20202;-64
2023/01/03 04:09:14;;;;;;;3.47;3.17;;;6.50;99.90;;;7.25;100.00;99079.41;5199922;28;20905;-64
2023/01/03 04:11:47;;;;;;;3.30;3.10;;;6.50;99.90;;;7.27;100.00;99080.41;5250983;22;20251;-60
2023/01/03 04:14:20;;;;;;;2.83;2.73;;;6.50;99.90;;;7.27;100.00;99088.03;5238109;28;20299;-61
2023/01/03 04:16:53;;;;;;;3.37;3.17;;;6.50;99.90;;;7.22;100.00;99096.16;5239337;28;20224;-61
2023/01/03 04:19:27;;;;;;;3.40;3.20;;;6.40;99.90;;;7.21;100.00;99093.47;5240519;28;20301;-62
2023/01/03 04:22:01;;;;;;;3.27;3.07;;;6.40;99.90;;;7.21;100.00;99091.84;5222649;28;20256;-61
2023/01/03 04:24:34;;;;;;;3.30;3.00;;;6.40;99.90;;;7.18;100.00;99088.09;5219938;28;20205;-61
2023/01/03 04:27:07;;;;;;;3.40;3.20;;;6.40;99.90;;;7.11;100.00;99094.28;5221943;28;20236;-61
2023/01/03 04:29:40;;;;;;;3.70;3.40;;;6.30;99.90;;;7.05;100.00;99091.22;5222235;28;20266;-61
2023/01/03 04:32:14;;;;;;;3.07;2.90;;;6.20;99.90;;;7.06;100.00;99090.44;5222064;28;20292;-60
2023/01/03 04:34:47;;;;;;;3.20;3.00;;;6.30;99.90;;;7.02;100.00;99080.75;5219566;28;20209;-61
2023/01/03 04:37:21;;;;;;;3.10;2.90;;;6.30;99.90;;;7.02;100.00;99084.97;5221154;28;20259;-61
2023/01/03 04:39:54;;;;;;;3.53;3.33;;;6.20;99.90;;;6.98;100.00;99097.38;5218811;28;20437;-60
2023/01/03 04:45:18;;;;;;;3.30;3.10;;;6.10;99.90;;;6.89;100.00;99094.00;5207754;28;20247;-61
2023/01/03 04:47:52;;;;;;;3.47;3.23;;;6.10;99.90;;;6.87;100.00;99099.72;5219487;28;20244;-62
2023/01/03 04:50:25;;;;;;;3.53;3.33;;;6.10;99.90;;;6.80;100.00;99102.44;5215430;28;20700;-61
2023/01/03 04:53:00;;;;;;;3.00;2.90;;;6.00;99.90;;;6.78;100.00;99094.66;5220364;28;20669;-62
2023/01/03 04:55:33;;;;;;;3.50;3.30;;;5.90;99.90;;;6.69;100.00;99087.09;5215548;28;20654;-60
2023/01/03 04:58:06;;;;;;;3.57;3.27;;;5.90;99.90;;;6.70;100.00;99093.09;5220997;28;20205;-61
2023/01/03 05:00:39;;;;;;;3.43;3.13;;;5.90;99.90;;;6.65;100.00;99096.84;5216242;28;20278;-61
2023/01/03 05:03:13;;;;;;;3.67;3.47;;;5.90;99.90;;;6.62;100.00;99102.53;5218259;28;20205;-62
2023/01/03 05:05:46;;;;;;;3.53;3.23;;;5.80;99.90;;;6.54;100.00;99100.91;5215675;28;20205;-61
2023/01/03 05:08:21;;;;;;;2.93;2.80;;;5.70;99.90;;;6.48;100.00;99108.88;5216481;28;20301;-61
2023/01/03 05:10:54;;;;;;;3.33;3.13;;;5.70;99.90;;;6.48;100.00;99102.91;5218846;28;20255;-61
2023/01/03 05:13:27;;;;;;;3.67;3.37;;;5.60;99.90;;;6.45;100.00;99097.53;5216947;28;21851;-62
2023/01/03 05:16:05;;;;;;;3.73;3.53;;;5.60;99.90;;;6.38;100.00;99107.88;5215794;28;20300;-61
2023/01/03 05:18:39;;;;;;;3.63;3.43;;;5.60;99.90;;;6.35;100.00;99102.50;5218767;28;20208;-61
2023/01/03 05:27:03;;;;;;;3.87;3.57;;;5.50;99.90;;;6.29;100.00;99121.47;5216355;28;20280;-61
2023/01/03 05:29:37;;;;;;;3.20;3.00;;;5.50;99.90;;;6.30;100.00;99118.22;5217162;28;20224;-61
2023/01/03 05:32:10;;;;;;;3.40;3.20;;;5.50;99.90;;;6.26;100.00;99121.19;5215318;28;20673;-60
2023/01/03 05:34:43;;;;;;;3.70;3.50;;;5.50;99.90;;;6.27;100.00;99111.97;5216269;28;20237;-61
2023/01/03 05:37:16;;;;;;;3.03;2.83;;;5.50;99.90;;;6.24;100.00;99115.09;5216803;28;20224;-60
2023/01/03 05:39:51;;;;;;;3.10;2.90;;;5.50;99.90;;;6.28;100.00;99114.63;5218328;28;20213;-61
2023/01/03 05:42:24;;;;;;;2.50;2.40;;;5.50;99.90;;;6.31;100.00;99108.94;5215794;28;20204;-60
2023/01/03 05:44:57;;;;;;;3.43;3.20;;;5.50;99.90;;;6.28;100.00;99113.72;5218629;28;20239;-62
2023/01/03 05:47:30;;;;;;;3.27;3.00;;;5.50;99.90;;;6.24;100.00;99117.63;5216712;28;20296;-60
2023/01/03 05:50:04;;;;;;;3.83;3.57;;;5.50;99.90;;;6.27;100.00;99123.00;5218018;28;20735;-61
2023/01/03 05:52:37;;;;;;;3.60;3.40;;;5.50;99.90;;;6.24;100.00;99117.63;5214118;28;20208;-61
2023/01/03 05:55:11;;;;;;;3.57;3.30;;;5.50;99.90;;;6.23;100.00;99130.16;5216543;28;20247;-61
2023/01/03 05:57:46;;;;;;;4.23;3.97;;;5.40;99.90;;;6.20;100.00;99142.56;5218567;28;20880;-62
2023/01/03 06:00:20;;;;;;;4.00;3.80;;;5.40;99.90;;;6.17;100.00;99139.75;5217747;28;20273;-59
2023/01/03 06:02:53;;;;;;;4.27;3.97;;;5.40;99.90;;;6.14;100.00;99140.34;5219828;28;20632;-61
2023/01/03 06:05:26;;;;;;;4.47;4.07;;;5.30;99.90;;;6.11;100.00;99144.25;5218174;28;21416;-61
2023/01/03 06:08:00;;;;;;;4.20;3.90;;;5.30;99.90;;;6.08;100.00;99144.84;5218979;28;20445;-62
2023/01/03 06:10:35;;;;;;;3.97;3.60;;;5.30;99.90;;;6.06;100.00;99147.22;5217682;28;20228;-61
2023/01/03 06:13:09;;;;;;;4.60;4.20;;;5.20;99.90;;;6.07;100.00;99150.69;5219172;28;20228;-61
2023/01/03 06:15:42;;;;;;;3.97;3.70;;;5.30;99.90;;;6.04;100.00;99155.47;5217323;28;20295;-60
2023/01/03 06:18:34;;;;;;;3.87;3.53;;;5.30;99.90;;;6.01;100.00;99157.69;5213187;28;20313;-62
2023/01/03 06:21:07;;;;;;;3.67;3.37;;;5.20;99.90;;;5.95;100.00;99167.25;5216165;28;20245;-61
2023/01/03 06:23:41;;;;;;;3.80;3.50;;;5.20;99.90;;;5.91;100.00;99171.13;5217843;28;20228;-61
2023/01/03 06:26:17;;;;;;;3.77;3.57;;;5.10;99.90;;;5.87;100.00;99169.94;5218576;28;20207;-61
2023/01/03 06:28:51;;;;;;;3.83;3.63;;;5.10;99.90;;;5.91;100.00;99175.31;5220970;28;20209;-60
2023/01/03 06:31:24;;;;;;;4.33;3.97;;;5.10;99.90;;;5.89;100.00;99172.59;5221749;28;20291;-60
2023/01/03 06:33:58;;;;;;;4.07;3.70;;;5.10;99.90;;;5.81;100.00;99164.28;5220357;28;20267;-61
2023/01/03 06:36:33;;;;;;;3.90;3.60;;;5.00;99.90;;;5.71;100.00;99164.13;5223528;28;20201;-61
2023/01/03 06:39:07;;;;;;;3.70;3.50;;;4.90;99.90;;;5.69;100.00;99177.41;5217503;28;20683;-61
2023/01/03 06:41:41;;;;;;;5.50;5.10;;;4.90;99.90;;;5.67;100.00;99168.78;5220210;28;20228;-61
2023/01/03 06:44:15;;;;;;;5.03;4.73;;;4.90;99.90;;;5.65;100.00;99166.06;5220913;28;20723;-61
2023/01/03 06:55:23;;;;;;;5.77;5.43;;;4.80;99.90;;;5.58;100.00;99178.88;5220508;28;20255;-61
2023/01/03 06:57:57;;;;;;;4.77;4.47;;;4.80;99.90;;;5.51;100.00;99179.94;5223026;28;20271;-61
2023/01/03 07:00:31;;;;;;;4.83;4.53;;;4.70;99.90;;;5.52;100.00;99183.34;5221170;28;20832;-60
2023/01/03 07:03:04;;;;;;;5.70;5.30;;;4.70;99.90;;;5.50;100.00;99179.81;5219940;28;20594;-61
2023/01/03 07:05:43;;;;;;;5.20;4.80;;;4.70;99.90;;;5.43;100.00;99186.78;5209706;28;20583;-61
2023/01/03 07:08:16;;;;;;;4.73;4.40;;;4.70;99.90;;;5.39;100.00;99192.31;5216291;28;20202;-60
2023/01/03 07:10:49;;;;;;;4.90;4.60;;;4.60;99.90;;;5.38;100.00;99185.47;5219995;28;20351;-61
2023/01/03 07:16:16;;;;;;;4.40;4.10;;;4.60;99.90;;;5.31;100.00;99203.31;5218491;28;20259;-61
2023/01/03 07:18:49;;;;;;;4.80;4.40;;;4.60;99.90;;;5.31;100.00;99200.78;5221041;28;20225;-59
2023/01/03 07:21:30;;;;;;;4.40;4.10;;;4.50;99.90;;;5.28;100.00;99192.88;5218203;28;20720;-61
2023/01/03 07:24:05;;;;;;;3.63;3.43;;;4.50;99.90;;;5.23;100.00;99199.13;5216784;28;20377;-61
2023/01/03 07:26:39;;;;;;;4.83;4.43;;;4.40;99.90;;;5.14;100.00;99204.19;5217189;28;20708;-61
2023/01/03 07:29:13;;;;;;;5.07;4.67;;;4.30;99.90;;;5.18;100.00;99201.22;5215132;28;20240;-60
2023/01/03 07:31:46;;;;;;;4.20;4.00;;;4.40;99.90;;;5.12;100.00;99200.63;5220116;28;20228;-60
2023/01/03 07:34:19;;;;;;;3.70;3.40;;;4.30;99.90;;;5.09;100.00;99209.53;5219082;28;20255;-61
2023/01/03 07:36:52;;;;;;;3.50;3.33;;;4.30;99.90;;;5.06;100.00;99205.06;5224665;28;20644;-60
2023/01/03 07:39:25;;;;;;;3.70;3.50;;;4.30;99.90;;;5.03;100.00;99208.94;5219717;28;20229;-61
2023/01/03 07:44:53;;;;;;;4.33;4.03;;;4.30;99.90;;;5.11;100.00;99195.38;5189565;28;20229;-61
2023/01/03 07:47:26;;;;;;;3.43;3.20;;;4.40;99.90;;;4.99;100.00;99212.78;5222463;28;20196;-61
2023/01/03 07:49:59;;;;;;;3.70;3.40;;;4.40;99.90;;;5.10;100.00;99216.41;5222028;28;20274;-60
2023/01/03 07:52:32;;;;;;;3.60;3.30;;;4.40;99.90;;;5.12;100.00;99215.81;5216984;28;20653;-57
2023/01/03 07:55:06;;;;;;;3.83;3.53;;;4.40;99.90;;;5.18;100.00;99216.44;5225647;28;20591;-58
2023/01/03 07:57:39;;;;;;;3.27;3.03;;;4.50;99.90;;;5.26;100.00;99223.88;5218243;28;20351;-58
2023/01/03 08:00:16;;;;;;;3.57;3.37;;;4.50;99.90;;;5.33;100.00;99217.06;5218125;28;20225;-56
2023/01/03 08:02:49;;;;;;;4.10;3.70;;;4.60;99.90;;;5.31;100.00;99228.66;5222263;28;20232;-60
2023/01/03 08:05:23;;;;;;;3.20;3.00;;;4.60;99.90;;;5.28;100.00;99228.38;5222946;28;20629;-61
2023/01/03 08:07:56;;;;;;;3.83;3.53;;;4.60;99.90;;;5.34;100.00;99230.63;5224699;28;20236;-61
2023/01/03 08:13:23;;;;;;;4.80;4.47;;;4.70;99.90;;;5.55;100.00;99236.91;5224267;28;20225;-61
2023/01/03 08:15:58;;;;;;;3.80;3.60;;;4.90;99.90;;;5.76;100.00;99230.53;5224444;28;20197;-61
2023/01/03 08:18:31;;;;;;;4.43;4.03;;;5.00;99.90;;;5.87;100.00;99233.38;5224061;28;20236;-61
2023/01/03 08:21:05;;;;;;;3.73;3.43;;;5.10;99.90;;;6.01;100.00;99233.81;5224250;28;20232;-60
2023/01/03 08:23:39;;;;;;;3.77;3.57;;;5.20;99.90;;;6.16;100.00;99242.94;5221367;28;20312;-61
2023/01/03 08:26:14;;;;;;;4.17;3.87;;;5.40;99.90;;;6.28;100.00;99241.56;5223886;28;20204;-60
2023/01/03 08:28:48;;;;;;;4.30;4.00;;;5.50;99.90;;;6.50;100.00;99248.72;5223896;28;20234;-61
2023/01/03 08:31:25;;;;;;;4.40;4.00;;;5.60;99.90;;;6.82;100.00;99243.22;5223353;28;20589;-61
2023/01/03 08:34:03;;;;;;;4.87;4.57;;;5.80;99.90;;;6.90;100.00;99242.31;5223770;28;20193;-61
2023/01/03 08:36:48;;;;;;;5.93;5.43;;;5.90;99.90;;;6.87;100.00;99240.38;5220761;28;20588;-61
2023/01/03 08:39:26;;;;;;;8.00;7.43;;;6.00;99.90;;;7.00;100.00;99234.78;5223594;28;20631;-61
2023/01/03 08:42:05;;;;;;;5.00;4.60;;;6.10;99.90;;;6.99;100.00;99241.50;5223170;28;20276;-61
2023/01/03 08:44:39;;;;;;;4.50;4.10;;;6.10;99.90;;;6.96;100.00;99248.84;5222379;28;20197;-60
2023/01/03 08:47:15;;;;;;;3.80;3.60;;;6.10;99.90;;;6.99;100.00;99253.31;5221143;28;20232;-61
2023/01/03 08:49:49;;;;;;;4.77;4.40;;;6.10;99.90;;;6.98;100.00;99247.34;5220473;28;20239;-58
2023/01/03 08:52:22;;;;;;;4.20;3.70;;;6.10;99.90;;;6.93;100.00;99250.22;5221085;28;20743;-61
2023/01/03 08:54:55;;;;;;;4.60;4.20;;;6.00;99.90;;;6.91;100.00;99244.09;5222644;28;20292;-61
2023/01/03 08:57:28;;;;;;;5.20;4.40;;;6.00;99.90;;;6.91;100.00;99252.59;5222576;28;20284;-60
2023/01/03 09:00:01;;;;;;;5.50;4.97;;;6.00;99.90;;;6.97;100.00;99255.72;5221994;28;20316;-61
2023/01/03 09:02:36;;;;;;;4.80;4.50;;;6.10;99.90;;;6.94;100.00;99255.44;5223148;28;20331;-61
2023/01/03 09:05:10;;;;;;;4.80;4.37;;;6.10;99.90;;;7.00;100.00;99255.09;5223277;28;20208;-60
2023/01/03 09:07:43;;;;;;;4.47;4.13;;;6.10;99.90;;;7.04;100.00;99261.34;5223055;28;20239;-59
2023/01/03 09:10:16;;;;;;;4.37;4.07;;;6.20;99.90;;;7.12;100.00;99261.31;5222625;28;20378;-61
2023/01/03 09:12:49;;;;;;;5.07;4.77;;;6.30;99.90;;;7.19;100.00;99261.16;5223123;28;20263;-61
2023/01/03 09:15:22;;;;;;;6.13;5.53;;;6.40;99.90;;;7.28;100.00;99267.84;5221731;28;20193;-61
2023/01/03 09:17:57;;;;;;;5.47;4.97;;;6.40;99.90;;;7.37;100.00;99269.59;5223427;28;20636;-61
2023/01/03 09:20:30;;;;;;;5.70;5.20;;;6.50;99.90;;;7.47;100.00;99265.34;5223135;28;20628;-61
2023/01/03 09:23:03;;;;;;;5.90;5.40;;;6.60;99.90;;;7.49;100.00;99263.84;5221208;28;20296;-61
2023/01/03 09:25:36;;;;;;;6.87;6.27;;;6.60;99.90;;;7.56;100.00;99277.25;5222142;28;20236;-60
2023/01/03 09:28:10;;;;;;;6.63;6.00;;;6.70;99.90;;;7.60;100.00;99274.22;5223089;28;20718;-61
2023/01/03 09:30:43;;;;;;;6.13;5.50;;;6.70;99.90;;;7.61;100.00;99264.94;5222517;28;20754;-61
2023/01/03 09:33:17;;;;;;;6.47;5.97;;;6.70;99.90;;;7.72;100.00;99263.38;5222881;28;20201;-61
2023/01/03 09:35:52;;;;;;;5.60;5.10;;;6.80;99.90;;;7.76;100.00;99271.44;5223073;28;20231;-60
2023/01/03 09:38:26;;;;;;;7.80;5.90;;;6.80;99.90;;;7.71;100.00;99266.69;5220970;28;20307;-61
2023/01/03 09:41:04;;;;;;;5.60;5.10;;;6.80;99.90;;;7.71;100.00;99266.69;5222870;28;20320;-61
2023/01/03 09:43:41;;;;;;;5.43;5.03;;;6.80;99.90;;;7.77;100.00;99273.22;5221782;28;20203;-61
2023/01/03 09:46:18;;;;;;;21.67;16.03;;;6.90;99.90;;;7.89;100.00;99273.44;5222579;28;20204;-61
2023/01/03 09:48:55;;;;;;;17.17;13.83;;;7.00;99.90;;;7.93;100.00;99275.53;5216602;28;20289;-60
2023/01/03 10:03:43;;;;;;;6.77;6.07;;;7.30;99.90;;;8.29;100.00;99271.91;5221298;28;20608;-61
2023/01/03 10:06:40;;;;;;;5.27;4.87;;;7.30;99.90;;;8.31;100.00;99275.50;5222789;28;20208;-61
2023/01/03 10:09:27;;;;;;;5.87;5.37;;;7.40;99.90;;;8.41;100.00;99272.13;5233061;28;20603;-60
2023/01/03 10:12:15;;;;;;;5.40;4.90;;;7.50;99.90;;;8.48;100.00;99275.34;5221525;28;20221;-61
2023/01/03 10:15:06;;;;;;;5.73;5.23;;;7.60;99.90;;;8.56;100.00;99274.38;5226104;28;20225;-61
2023/01/03 10:17:52;;;;;;;5.73;5.23;;;7.70;99.90;;;8.62;99.82;99276.56;5226154;28;20205;-59
2023/01/03 10:20:45;;;;;;;6.45;4.90;;;7.80;99.90;;;8.72;100.00;99270.59;5225831;28;20260;-59
2023/01/03 10:23:20;;;;;;;5.90;5.40;;;7.90;99.90;;;8.75;99.49;99264.13;5222342;28;20197;-58
2023/01/03 10:25:54;;;;;;;5.80;5.40;;;8.00;99.90;;;8.80;98.63;99272.16;5226102;28;20331;-60
2023/01/03 10:28:35;;;;;;;6.60;5.78;;;8.00;99.90;;;8.90;99.06;99272.22;5226545;28;20243;-61
2023/01/03 10:31:24;;;;;;;6.30;5.78;;;8.10;99.90;;;8.94;98.82;99274.25;5220775;28;20286;-61
2023/01/03 10:33:57;;;;;;;7.43;6.10;;;8.20;99.90;;;9.02;99.19;99268.16;5226199;28;20213;-61
2023/01/03 10:36:30;;;;;;;6.75;6.05;;;8.20;99.90;;;9.14;98.88;99272.53;5224917;28;20296;-61
2023/01/03 10:39:08;;;;;;;7.18;5.75;;;8.30;99.90;;;9.18;98.63;99275.44;5226010;28;20308;-60
2023/01/03 10:41:44;;;;;;;6.40;5.80;;;8.30;99.90;;;9.23;98.87;99269.09;5225536;28;20220;-61
2023/01/03 10:44:26;;;;;;;7.18;5.88;;;8.40;99.90;;;9.33;97.42;99267.31;5226113;28;20262;-61
2023/01/03 10:47:09;;;;;;;6.38;5.85;;;8.50;99.90;;;9.43;96.75;99268.22;5226417;28;20603;-62
2023/01/03 10:49:45;;;;;;;6.68;6.07;;;8.50;99.90;;;9.47;96.64;99254.97;5223684;28;20201;-62
2023/01/03 10:52:21;;;;;;;6.65;6.05;;;8.60;99.90;;;9.70;95.93;99262.00;5225866;28;20232;-62
2023/01/03 10:54:59;;;;;;;6.72;6.22;;;8.70;99.90;;;9.58;95.91;99265.16;5223621;28;20331;-62
2023/01/03 10:57:42;;;;;;;7.85;7.05;;;8.70;99.90;;;9.61;94.86;99262.88;5226198;28;20631;-62
2023/01/03 11:00:29;;;;;;;7.30;6.70;;;8.60;99.90;;;9.51;96.29;99261.22;5225475;28;20719;-60
2023/01/03 11:03:13;;;;;;;8.07;7.18;;;8.60;99.90;;;9.44;96.67;99256.34;5224311;28;20296;-61
2023/01/03 11:05:49;;;;;;;7.15;6.60;;;8.60;99.90;;;9.41;97.09;99248.44;5225544;28;20288;-62
2023/01/03 11:08:35;;;;;;;7.50;6.90;;;8.60;99.90;;;9.32;96.72;99247.69;5222497;28;20205;-62
2023/01/03 11:11:28;;;;;;;6.60;5.93;;;8.50;99.90;;;9.31;97.78;99246.78;5224092;28;20228;-60
2023/01/03 11:14:20;;;;;;;6.53;6.03;;;8.50;99.90;;;9.27;97.81;99248.94;5219679;28;20255;-61
2023/01/03 11:16:56;;;;;;;6.90;6.22;;;8.50;99.90;;;9.22;97.21;99241.81;5221227;28;20259;-61
2023/01/03 11:19:32;;;;;;;6.47;5.90;;;8.50;99.90;;;9.18;97.96;99238.84;5218048;28;20650;-61
2023/01/03 11:22:14;;;;;;;6.95;6.28;;;8.50;99.90;;;9.16;98.27;99236.19;5214500;28;20201;-61
2023/01/03 11:25:04;;;;;;;6.90;6.15;;;8.50;99.90;;;9.17;98.60;99237.06;5219789;28;20201;-61
2023/01/03 11:28:00;;;;;;;6.07;5.53;;;8.40;99.90;;;9.17;98.80;99231.97;5224739;28;20292;-61
2023/01/03 11:30:40;;;;;;;8.07;7.38;;;8.40;99.90;;;9.22;97.52;99231.59;5214555;28;20225;-61
2023/01/03 11:33:39;;;;;;;7.40;6.57;;;8.40;99.90;;;9.25;98.19;99226.75;5219182;28;20259;-61
2023/01/03 11:36:28;;;;;;;7.82;7.00;;;8.50;99.90;;;9.27;98.17;99223.44;5216857;28;20202;-60
2023/01/03 11:39:20;;;;;;;7.78;7.10;;;8.50;99.90;;;9.27;97.88;99218.31;5217340;28;20201;-61
2023/01/03 11:42:24;;;;;;;7.30;6.47;;;8.50;99.90;;;9.36;97.93;99220.00;5220875;28;20220;-59
2023/01/03 11:45:30;;;;;;;6.45;5.85;;;8.60;99.90;;;9.44;97.49;99213.91;5216609;28;20193;-60
2023/01/03 11:48:42;;;;;;;7.05;6.45;;;8.70;99.90;;;9.48;96.84;99208.25;5220028;28;20298;-60
2023/01/03 11:51:24;;;;;;;6.38;5.88;;;8.70;99.90;;;9.50;95.71;99212.59;5217788;28;20965;-59
2023/01/03 11:54:07;;;;;;;6.78;6.13;;;8.80;99.90;;;9.65;94.36;99212.22;5216876;28;21622;-61
2023/01/03 11:56:44;;;;;;;5.72;5.03;;;8.90;99.90;;;9.72;93.50;99211.03;5216468;28;20202;-61
2023/01/03 11:59:46;;;;;;;8.10;7.40;;;8.90;99.90;;;9.76;93.97;99207.06;5215121;28;20399;-60
2023/01/03 12:02:55;;;;;;;6.55;6.05;;;9.00;99.90;;;9.97;94.57;99206.28;5215616;28;20244;-62
2023/01/03 12:05:46;;;;;;;6.22;5.72;;;9.20;99.90;;;9.92;93.84;99211.00;5218132;28;20209;-61
2023/01/03 12:09:00;;;;;;;5.35;4.60;;;9.10;99.90;;;9.86;93.76;99205.41;5217282;28;20806;-62
2023/01/03 12:11:52;;;;;;;4.82;4.45;;;9.10;99.90;;;9.88;92.71;99213.22;5215568;28;20311;-61
2023/01/03 12:14:33;;;;;;;4.53;4.20;;;9.10;99.90;;;9.91;92.92;99208.34;5217400;28;20270;-61
2023/01/03 12:17:11;;;;;;;4.45;3.90;;;9.10;99.90;;;9.88;91.94;99208.97;5218497;28;20223;-61
2023/01/03 12:19:53;;;;;;;4.18;3.88;;;9.10;99.90;;;9.83;93.27;99201.72;5216725;28;20609;-61